sensor_id;sensor_type;location;lat;lon;timestamp;P1;durP1;ratioP1;P2;durP2;ratioP2
38972;SDS011;25333;50.762;4.470;2023-11-21T00:02:13;23.97;;;13.67;;
38972;SDS011;25333;50.762;4.470;2023-11-21T00:04:39;29.25;;;15.38;;
38972;SDS011;25333;50.762;4.470;2023-11-21T00:07:04;21.70;;;13.97;;
38972;SDS011;25333;50.762;4.470;2023-11-21T00:09:31;22.80;;;15.00;;
38972;SDS011;25333;50.762;4.470;2023-11-21T00:11:57;21.25;;;13.73;;
38972;SDS011;25333;50.762;4.470;2023-11-21T00:14:24;30.95;;;15.88;;
38972;SDS011;25333;50.762;4.470;2023-11-21T00:16:50;25.08;;;13.95;;
38972;SDS011;25333;50.762;4.470;2023-11-21T00:19:15;22.73;;;13.03;;
38972;SDS011;25333;50.762;4.470;2023-11-21T00:21:41;25.50;;;15.32;;
38972;SDS011;25333;50.762;4.470;2023-11-21T00:24:09;19.70;;;12.65;;
38972;SDS011;25333;50.762;4.470;2023-11-21T00:26:35;26.33;;;15.68;;
38972;SDS011;25333;50.762;4.470;2023-11-21T00:29:03;22.92;;;13.95;;
38972;SDS011;25333;50.762;4.470;2023-11-21T00:31:28;23.58;;;13.73;;
38972;SDS011;25333;50.762;4.470;2023-11-21T00:33:55;22.70;;;13.25;;
38972;SDS011;25333;50.762;4.470;2023-11-21T00:36:21;20.70;;;11.40;;
38972;SDS011;25333;50.762;4.470;2023-11-21T00:38:47;23.00;;;14.73;;
38972;SDS011;25333;50.762;4.470;2023-11-21T00:41:13;22.70;;;14.90;;
38972;SDS011;25333;50.762;4.470;2023-11-21T00:43:39;21.00;;;13.25;;
38972;SDS011;25333;50.762;4.470;2023-11-21T00:46:05;23.80;;;14.63;;
38972;SDS011;25333;50.762;4.470;2023-11-21T00:48:34;22.13;;;13.15;;
38972;SDS011;25333;50.762;4.470;2023-11-21T00:50:59;21.77;;;14.33;;
38972;SDS011;25333;50.762;4.470;2023-11-21T00:53:25;23.73;;;14.75;;
38972;SDS011;25333;50.762;4.470;2023-11-21T00:55:51;25.85;;;15.30;;
38972;SDS011;25333;50.762;4.470;2023-11-21T00:58:22;23.20;;;14.73;;
38972;SDS011;25333;50.762;4.470;2023-11-21T01:00:48;24.88;;;14.70;;
38972;SDS011;25333;50.762;4.470;2023-11-21T01:03:14;23.73;;;14.83;;
38972;SDS011;25333;50.762;4.470;2023-11-21T01:05:39;23.48;;;15.52;;
38972;SDS011;25333;50.762;4.470;2023-11-21T01:08:05;25.30;;;15.53;;
38972;SDS011;25333;50.762;4.470;2023-11-21T01:10:31;26.25;;;15.30;;
38972;SDS011;25333;50.762;4.470;2023-11-21T01:12:56;23.25;;;14.10;;
38972;SDS011;25333;50.762;4.470;2023-11-21T01:15:22;22.55;;;13.65;;
38972;SDS011;25333;50.762;4.470;2023-11-21T01:17:51;25.75;;;15.88;;
38972;SDS011;25333;50.762;4.470;2023-11-21T01:20:17;25.55;;;15.32;;
38972;SDS011;25333;50.762;4.470;2023-11-21T01:22:43;24.25;;;15.43;;
38972;SDS011;25333;50.762;4.470;2023-11-21T01:25:09;23.90;;;13.77;;
38972;SDS011;25333;50.762;4.470;2023-11-21T01:27:36;22.73;;;13.85;;
38972;SDS011;25333;50.762;4.470;2023-11-21T01:30:04;25.23;;;14.83;;
38972;SDS011;25333;50.762;4.470;2023-11-21T01:32:32;19.80;;;14.05;;
38972;SDS011;25333;50.762;4.470;2023-11-21T01:34:59;21.95;;;14.23;;
38972;SDS011;25333;50.762;4.470;2023-11-21T01:37:25;22.40;;;14.45;;
38972;SDS011;25333;50.762;4.470;2023-11-21T01:39:53;24.15;;;14.48;;
38972;SDS011;25333;50.762;4.470;2023-11-21T01:42:20;21.98;;;12.93;;
38972;SDS011;25333;50.762;4.470;2023-11-21T01:44:46;22.90;;;12.73;;
38972;SDS011;25333;50.762;4.470;2023-11-21T01:47:11;23.42;;;15.07;;
38972;SDS011;25333;50.762;4.470;2023-11-21T01:49:39;23.48;;;15.07;;
38972;SDS011;25333;50.762;4.470;2023-11-21T01:52:05;25.55;;;14.35;;
38972;SDS011;25333;50.762;4.470;2023-11-21T01:54:31;21.63;;;13.75;;
38972;SDS011;25333;50.762;4.470;2023-11-21T01:56:58;19.67;;;12.60;;
38972;SDS011;25333;50.762;4.470;2023-11-21T01:59:28;20.33;;;12.48;;
38972;SDS011;25333;50.762;4.470;2023-11-21T02:02:02;20.42;;;14.57;;
38972;SDS011;25333;50.762;4.470;2023-11-21T02:04:32;22.70;;;11.38;;
38972;SDS011;25333;50.762;4.470;2023-11-21T02:06:58;22.35;;;14.10;;
38972;SDS011;25333;50.762;4.470;2023-11-21T02:09:28;22.92;;;13.90;;
38972;SDS011;25333;50.762;4.470;2023-11-21T02:11:58;19.13;;;11.40;;
38972;SDS011;25333;50.762;4.470;2023-11-21T02:14:27;21.48;;;13.60;;
38972;SDS011;25333;50.762;4.470;2023-11-21T02:16:54;16.25;;;11.55;;
38972;SDS011;25333;50.762;4.470;2023-11-21T02:19:21;19.45;;;11.95;;
38972;SDS011;25333;50.762;4.470;2023-11-21T02:21:54;18.63;;;12.40;;
38972;SDS011;25333;50.762;4.470;2023-11-21T02:24:31;18.95;;;11.23;;
38972;SDS011;25333;50.762;4.470;2023-11-21T02:26:57;19.65;;;12.52;;
38972;SDS011;25333;50.762;4.470;2023-11-21T02:29:23;17.05;;;10.57;;
38972;SDS011;25333;50.762;4.470;2023-11-21T02:31:55;18.88;;;11.43;;
38972;SDS011;25333;50.762;4.470;2023-11-21T02:34:21;21.07;;;12.27;;
38972;SDS011;25333;50.762;4.470;2023-11-21T02:36:48;20.50;;;11.77;;
38972;SDS011;25333;50.762;4.470;2023-11-21T02:39:17;14.77;;;10.40;;
38972;SDS011;25333;50.762;4.470;2023-11-21T02:41:43;15.98;;;10.95;;
38972;SDS011;25333;50.762;4.470;2023-11-21T02:44:09;20.83;;;12.93;;
38972;SDS011;25333;50.762;4.470;2023-11-21T02:46:35;19.20;;;12.25;;
38972;SDS011;25333;50.762;4.470;2023-11-21T02:49:05;18.55;;;13.55;;
38972;SDS011;25333;50.762;4.470;2023-11-21T02:51:35;17.33;;;11.55;;
38972;SDS011;25333;50.762;4.470;2023-11-21T02:54:02;21.88;;;12.45;;
38972;SDS011;25333;50.762;4.470;2023-11-21T02:56:31;17.10;;;11.95;;
38972;SDS011;25333;50.762;4.470;2023-11-21T02:58:58;18.40;;;11.25;;
38972;SDS011;25333;50.762;4.470;2023-11-21T03:01:25;17.73;;;10.70;;
38972;SDS011;25333;50.762;4.470;2023-11-21T03:03:50;16.65;;;11.05;;
38972;SDS011;25333;50.762;4.470;2023-11-21T03:06:17;18.20;;;10.70;;
38972;SDS011;25333;50.762;4.470;2023-11-21T03:08:43;15.95;;;11.55;;
38972;SDS011;25333;50.762;4.470;2023-11-21T03:11:09;19.60;;;11.37;;
38972;SDS011;25333;50.762;4.470;2023-11-21T03:13:34;18.60;;;11.85;;
38972;SDS011;25333;50.762;4.470;2023-11-21T03:16:00;16.97;;;11.03;;
38972;SDS011;25333;50.762;4.470;2023-11-21T03:18:25;16.30;;;9.90;;
38972;SDS011;25333;50.762;4.470;2023-11-21T03:20:54;18.40;;;11.73;;
38972;SDS011;25333;50.762;4.470;2023-11-21T03:23:20;17.70;;;10.93;;
38972;SDS011;25333;50.762;4.470;2023-11-21T03:25:45;16.25;;;11.57;;
38972;SDS011;25333;50.762;4.470;2023-11-21T03:28:11;18.17;;;11.18;;
38972;SDS011;25333;50.762;4.470;2023-11-21T03:30:36;16.07;;;11.33;;
38972;SDS011;25333;50.762;4.470;2023-11-21T03:33:02;17.65;;;10.13;;
38972;SDS011;25333;50.762;4.470;2023-11-21T03:35:28;15.93;;;9.53;;
38972;SDS011;25333;50.762;4.470;2023-11-21T03:37:53;13.67;;;9.73;;
38972;SDS011;25333;50.762;4.470;2023-11-21T03:40:19;17.17;;;10.63;;
38972;SDS011;25333;50.762;4.470;2023-11-21T03:42:46;18.48;;;11.07;;
38972;SDS011;25333;50.762;4.470;2023-11-21T03:45:12;16.88;;;10.88;;
38972;SDS011;25333;50.762;4.470;2023-11-21T03:47:39;16.90;;;10.23;;
38972;SDS011;25333;50.762;4.470;2023-11-21T03:50:08;15.18;;;9.98;;
38972;SDS011;25333;50.762;4.470;2023-11-21T03:52:34;16.95;;;10.68;;
38972;SDS011;25333;50.762;4.470;2023-11-21T03:55:00;14.73;;;10.53;;
38972;SDS011;25333;50.762;4.470;2023-11-21T03:57:26;16.15;;;10.38;;
38972;SDS011;25333;50.762;4.470;2023-11-21T03:59:53;16.15;;;10.65;;
38972;SDS011;25333;50.762;4.470;2023-11-21T04:02:18;18.95;;;10.27;;
38972;SDS011;25333;50.762;4.470;2023-11-21T04:04:44;18.75;;;11.88;;
38972;SDS011;25333;50.762;4.470;2023-11-21T04:07:10;14.17;;;9.80;;
38972;SDS011;25333;50.762;4.470;2023-11-21T04:09:36;16.25;;;10.32;;
38972;SDS011;25333;50.762;4.470;2023-11-21T04:12:01;15.40;;;10.17;;
38972;SDS011;25333;50.762;4.470;2023-11-21T04:14:27;18.40;;;10.10;;
38972;SDS011;25333;50.762;4.470;2023-11-21T04:16:53;19.10;;;11.02;;
38972;SDS011;25333;50.762;4.470;2023-11-21T04:19:19;17.37;;;11.63;;
38972;SDS011;25333;50.762;4.470;2023-11-21T04:21:44;14.18;;;9.60;;
38972;SDS011;25333;50.762;4.470;2023-11-21T04:24:11;13.95;;;9.48;;
38972;SDS011;25333;50.762;4.470;2023-11-21T04:26:36;13.93;;;8.97;;
38972;SDS011;25333;50.762;4.470;2023-11-21T04:29:02;17.08;;;10.55;;
38972;SDS011;25333;50.762;4.470;2023-11-21T04:31:29;18.63;;;11.98;;
38972;SDS011;25333;50.762;4.470;2023-11-21T04:33:55;16.88;;;10.45;;
38972;SDS011;25333;50.762;4.470;2023-11-21T04:36:21;15.90;;;10.55;;
38972;SDS011;25333;50.762;4.470;2023-11-21T04:38:46;20.57;;;12.30;;
38972;SDS011;25333;50.762;4.470;2023-11-21T04:41:12;17.00;;;10.82;;
38972;SDS011;25333;50.762;4.470;2023-11-21T04:43:38;15.00;;;9.80;;
38972;SDS011;25333;50.762;4.470;2023-11-21T04:46:03;15.37;;;9.43;;
38972;SDS011;25333;50.762;4.470;2023-11-21T04:48:29;17.13;;;11.43;;
38972;SDS011;25333;50.762;4.470;2023-11-21T04:50:54;16.47;;;10.47;;
38972;SDS011;25333;50.762;4.470;2023-11-21T04:53:20;17.47;;;11.57;;
38972;SDS011;25333;50.762;4.470;2023-11-21T04:55:46;18.02;;;11.10;;
38972;SDS011;25333;50.762;4.470;2023-11-21T04:58:13;14.77;;;10.57;;
38972;SDS011;25333;50.762;4.470;2023-11-21T05:00:39;16.08;;;10.88;;
38972;SDS011;25333;50.762;4.470;2023-11-21T05:03:04;16.83;;;10.10;;
38972;SDS011;25333;50.762;4.470;2023-11-21T05:05:32;17.38;;;11.73;;
38972;SDS011;25333;50.762;4.470;2023-11-21T05:07:59;15.48;;;9.93;;
38972;SDS011;25333;50.762;4.470;2023-11-21T05:10:24;16.47;;;10.87;;
38972;SDS011;25333;50.762;4.470;2023-11-21T05:12:50;15.68;;;10.43;;
38972;SDS011;25333;50.762;4.470;2023-11-21T05:15:16;15.90;;;10.80;;
38972;SDS011;25333;50.762;4.470;2023-11-21T05:17:42;14.20;;;10.03;;
38972;SDS011;25333;50.762;4.470;2023-11-21T05:20:12;17.20;;;11.68;;
38972;SDS011;25333;50.762;4.470;2023-11-21T05:22:42;15.20;;;11.80;;
38972;SDS011;25333;50.762;4.470;2023-11-21T05:25:08;15.15;;;10.57;;
38972;SDS011;25333;50.762;4.470;2023-11-21T05:27:34;13.73;;;10.18;;
38972;SDS011;25333;50.762;4.470;2023-11-21T05:30:04;15.70;;;11.30;;
38972;SDS011;25333;50.762;4.470;2023-11-21T05:32:31;18.17;;;12.30;;
38972;SDS011;25333;50.762;4.470;2023-11-21T05:35:00;16.33;;;11.57;;
38972;SDS011;25333;50.762;4.470;2023-11-21T05:37:26;15.65;;;10.38;;
38972;SDS011;25333;50.762;4.470;2023-11-21T05:39:52;16.20;;;11.95;;
38972;SDS011;25333;50.762;4.470;2023-11-21T05:42:19;17.08;;;11.48;;
38972;SDS011;25333;50.762;4.470;2023-11-21T05:44:46;16.80;;;11.73;;
38972;SDS011;25333;50.762;4.470;2023-11-21T05:47:11;18.48;;;12.32;;
38972;SDS011;25333;50.762;4.470;2023-11-21T05:49:38;19.23;;;12.55;;
38972;SDS011;25333;50.762;4.470;2023-11-21T05:52:04;17.07;;;10.93;;
38972;SDS011;25333;50.762;4.470;2023-11-21T05:54:30;16.38;;;11.45;;
38972;SDS011;25333;50.762;4.470;2023-11-21T05:56:56;16.50;;;11.32;;
38972;SDS011;25333;50.762;4.470;2023-11-21T05:59:22;18.90;;;12.50;;
38972;SDS011;25333;50.762;4.470;2023-11-21T06:01:49;19.23;;;12.30;;
38972;SDS011;25333;50.762;4.470;2023-11-21T06:04:14;15.47;;;11.40;;
38972;SDS011;25333;50.762;4.470;2023-11-21T06:06:40;16.03;;;12.20;;
38972;SDS011;25333;50.762;4.470;2023-11-21T06:09:05;16.80;;;11.80;;
38972;SDS011;25333;50.762;4.470;2023-11-21T06:11:33;15.02;;;10.70;;
38972;SDS011;25333;50.762;4.470;2023-11-21T06:13:59;15.30;;;11.00;;
38972;SDS011;25333;50.762;4.470;2023-11-21T06:16:25;18.05;;;13.38;;
38972;SDS011;25333;50.762;4.470;2023-11-21T06:18:51;19.90;;;12.43;;
38972;SDS011;25333;50.762;4.470;2023-11-21T06:21:16;18.48;;;12.65;;
38972;SDS011;25333;50.762;4.470;2023-11-21T06:23:43;17.38;;;11.98;;
38972;SDS011;25333;50.762;4.470;2023-11-21T06:26:08;17.47;;;11.53;;
38972;SDS011;25333;50.762;4.470;2023-11-21T06:28:34;15.35;;;12.02;;
38972;SDS011;25333;50.762;4.470;2023-11-21T06:31:01;15.98;;;13.05;;
38972;SDS011;25333;50.762;4.470;2023-11-21T06:33:30;18.35;;;13.57;;
38972;SDS011;25333;50.762;4.470;2023-11-21T06:35:56;22.00;;;14.07;;
38972;SDS011;25333;50.762;4.470;2023-11-21T06:38:22;18.95;;;13.38;;
38972;SDS011;25333;50.762;4.470;2023-11-21T06:40:48;20.40;;;13.37;;
38972;SDS011;25333;50.762;4.470;2023-11-21T06:43:13;18.42;;;12.82;;
38972;SDS011;25333;50.762;4.470;2023-11-21T06:45:40;20.90;;;13.05;;
38972;SDS011;25333;50.762;4.470;2023-11-21T06:48:05;16.50;;;12.17;;
38972;SDS011;25333;50.762;4.470;2023-11-21T06:50:31;16.00;;;12.02;;
38972;SDS011;25333;50.762;4.470;2023-11-21T06:52:57;24.33;;;14.83;;
38972;SDS011;25333;50.762;4.470;2023-11-21T06:55:22;19.30;;;14.38;;
38972;SDS011;25333;50.762;4.470;2023-11-21T06:57:48;19.50;;;12.17;;
38972;SDS011;25333;50.762;4.470;2023-11-21T07:00:15;18.48;;;11.32;;
38972;SDS011;25333;50.762;4.470;2023-11-21T07:02:42;14.00;;;11.32;;
38972;SDS011;25333;50.762;4.470;2023-11-21T07:05:09;18.20;;;13.20;;
38972;SDS011;25333;50.762;4.470;2023-11-21T07:07:34;21.77;;;15.47;;
38972;SDS011;25333;50.762;4.470;2023-11-21T07:10:02;22.30;;;15.18;;
38972;SDS011;25333;50.762;4.470;2023-11-21T07:12:28;19.20;;;12.35;;
38972;SDS011;25333;50.762;4.470;2023-11-21T07:14:56;16.73;;;11.80;;
38972;SDS011;25333;50.762;4.470;2023-11-21T07:17:22;15.35;;;11.15;;
38972;SDS011;25333;50.762;4.470;2023-11-21T07:19:48;17.27;;;12.82;;
38972;SDS011;25333;50.762;4.470;2023-11-21T07:22:15;16.90;;;12.23;;
38972;SDS011;25333;50.762;4.470;2023-11-21T07:24:47;17.77;;;12.50;;
38972;SDS011;25333;50.762;4.470;2023-11-21T07:27:16;18.10;;;13.55;;
38972;SDS011;25333;50.762;4.470;2023-11-21T07:29:43;17.13;;;12.63;;
38972;SDS011;25333;50.762;4.470;2023-11-21T07:32:09;18.52;;;12.40;;
38972;SDS011;25333;50.762;4.470;2023-11-21T07:34:35;18.50;;;14.20;;
38972;SDS011;25333;50.762;4.470;2023-11-21T07:37:01;20.98;;;12.20;;
38972;SDS011;25333;50.762;4.470;2023-11-21T07:39:27;19.08;;;13.98;;
38972;SDS011;25333;50.762;4.470;2023-11-21T07:41:53;19.85;;;13.75;;
38972;SDS011;25333;50.762;4.470;2023-11-21T07:44:19;18.95;;;13.85;;
38972;SDS011;25333;50.762;4.470;2023-11-21T07:46:45;20.38;;;13.90;;
38972;SDS011;25333;50.762;4.470;2023-11-21T07:49:11;22.50;;;14.48;;
38972;SDS011;25333;50.762;4.470;2023-11-21T07:51:41;19.88;;;13.45;;
38972;SDS011;25333;50.762;4.470;2023-11-21T07:54:07;23.27;;;15.30;;
38972;SDS011;25333;50.762;4.470;2023-11-21T07:56:32;25.70;;;15.05;;
38972;SDS011;25333;50.762;4.470;2023-11-21T07:58:58;23.37;;;15.20;;
38972;SDS011;25333;50.762;4.470;2023-11-21T08:01:24;22.08;;;15.35;;
38972;SDS011;25333;50.762;4.470;2023-11-21T08:03:49;23.08;;;15.10;;
38972;SDS011;25333;50.762;4.470;2023-11-21T08:06:17;22.52;;;14.98;;
38972;SDS011;25333;50.762;4.470;2023-11-21T08:08:43;21.50;;;14.87;;
38972;SDS011;25333;50.762;4.470;2023-11-21T08:11:09;25.08;;;14.35;;
38972;SDS011;25333;50.762;4.470;2023-11-21T08:13:35;21.40;;;14.15;;
38972;SDS011;25333;50.762;4.470;2023-11-21T08:16:01;23.08;;;15.20;;
38972;SDS011;25333;50.762;4.470;2023-11-21T08:18:27;21.45;;;14.88;;
38972;SDS011;25333;50.762;4.470;2023-11-21T08:20:54;24.50;;;15.93;;
38972;SDS011;25333;50.762;4.470;2023-11-21T08:23:20;29.02;;;17.75;;
38972;SDS011;25333;50.762;4.470;2023-11-21T08:25:50;27.67;;;17.30;;
38972;SDS011;25333;50.762;4.470;2023-11-21T08:28:16;25.80;;;16.23;;
38972;SDS011;25333;50.762;4.470;2023-11-21T08:30:42;28.63;;;18.08;;
38972;SDS011;25333;50.762;4.470;2023-11-21T08:33:09;23.88;;;17.55;;
38972;SDS011;25333;50.762;4.470;2023-11-21T08:35:36;33.67;;;19.47;;
38972;SDS011;25333;50.762;4.470;2023-11-21T08:38:02;30.13;;;18.20;;
38972;SDS011;25333;50.762;4.470;2023-11-21T08:40:28;33.75;;;19.40;;
38972;SDS011;25333;50.762;4.470;2023-11-21T08:42:54;29.20;;;17.80;;
38972;SDS011;25333;50.762;4.470;2023-11-21T08:45:20;40.93;;;19.83;;
38972;SDS011;25333;50.762;4.470;2023-11-21T08:47:50;30.33;;;20.47;;
38972;SDS011;25333;50.762;4.470;2023-11-21T08:50:16;31.67;;;16.45;;
38972;SDS011;25333;50.762;4.470;2023-11-21T08:52:41;26.20;;;16.80;;
38972;SDS011;25333;50.762;4.470;2023-11-21T08:55:08;24.40;;;17.13;;
38972;SDS011;25333;50.762;4.470;2023-11-21T08:57:40;28.20;;;19.20;;
38972;SDS011;25333;50.762;4.470;2023-11-21T09:00:08;28.25;;;17.27;;
38972;SDS011;25333;50.762;4.470;2023-11-21T09:02:42;29.38;;;18.05;;
38972;SDS011;25333;50.762;4.470;2023-11-21T09:05:09;29.95;;;18.98;;
38972;SDS011;25333;50.762;4.470;2023-11-21T09:07:36;29.75;;;18.02;;
38972;SDS011;25333;50.762;4.470;2023-11-21T09:10:03;28.52;;;19.90;;
38972;SDS011;25333;50.762;4.470;2023-11-21T09:12:30;29.67;;;18.77;;
38972;SDS011;25333;50.762;4.470;2023-11-21T09:14:57;29.92;;;19.58;;
38972;SDS011;25333;50.762;4.470;2023-11-21T09:17:23;27.43;;;16.70;;
38972;SDS011;25333;50.762;4.470;2023-11-21T09:19:49;32.65;;;18.45;;
38972;SDS011;25333;50.762;4.470;2023-11-21T09:22:16;28.88;;;17.40;;
38972;SDS011;25333;50.762;4.470;2023-11-21T09:24:42;32.10;;;18.80;;
38972;SDS011;25333;50.762;4.470;2023-11-21T09:27:08;28.35;;;18.35;;
38972;SDS011;25333;50.762;4.470;2023-11-21T09:29:34;26.10;;;16.80;;
38972;SDS011;25333;50.762;4.470;2023-11-21T09:32:04;38.38;;;20.08;;
38972;SDS011;25333;50.762;4.470;2023-11-21T09:34:31;40.95;;;20.05;;
38972;SDS011;25333;50.762;4.470;2023-11-21T09:36:58;37.72;;;19.15;;
38972;SDS011;25333;50.762;4.470;2023-11-21T09:39:24;34.23;;;19.07;;
38972;SDS011;25333;50.762;4.470;2023-11-21T09:41:50;34.15;;;20.73;;
38972;SDS011;25333;50.762;4.470;2023-11-21T09:44:35;33.67;;;20.35;;
38972;SDS011;25333;50.762;4.470;2023-11-21T09:47:23;30.98;;;19.55;;
38972;SDS011;25333;50.762;4.470;2023-11-21T09:49:49;32.97;;;19.52;;
38972;SDS011;25333;50.762;4.470;2023-11-21T09:52:26;30.45;;;17.83;;
38972;SDS011;25333;50.762;4.470;2023-11-21T09:54:53;37.45;;;21.65;;
38972;SDS011;25333;50.762;4.470;2023-11-21T09:57:23;30.38;;;18.45;;
38972;SDS011;25333;50.762;4.470;2023-11-21T09:59:53;32.70;;;20.85;;
38972;SDS011;25333;50.762;4.470;2023-11-21T10:02:25;28.17;;;17.73;;
38972;SDS011;25333;50.762;4.470;2023-11-21T10:04:53;24.85;;;16.77;;
38972;SDS011;25333;50.762;4.470;2023-11-21T10:07:20;34.25;;;18.52;;
38972;SDS011;25333;50.762;4.470;2023-11-21T10:09:46;28.60;;;17.38;;
38972;SDS011;25333;50.762;4.470;2023-11-21T10:12:14;28.65;;;14.98;;
38972;SDS011;25333;50.762;4.470;2023-11-21T10:14:41;27.83;;;16.83;;
38972;SDS011;25333;50.762;4.470;2023-11-21T10:17:10;27.08;;;15.55;;
38972;SDS011;25333;50.762;4.470;2023-11-21T10:19:37;26.40;;;14.60;;
38972;SDS011;25333;50.762;4.470;2023-11-21T10:22:04;22.17;;;14.63;;
38972;SDS011;25333;50.762;4.470;2023-11-21T10:24:32;21.90;;;14.95;;
38972;SDS011;25333;50.762;4.470;2023-11-21T10:26:58;22.58;;;13.90;;
38972;SDS011;25333;50.762;4.470;2023-11-21T10:29:28;20.77;;;12.65;;
38972;SDS011;25333;50.762;4.470;2023-11-21T10:31:55;23.15;;;15.13;;
38972;SDS011;25333;50.762;4.470;2023-11-21T10:34:23;22.73;;;17.38;;
38972;SDS011;25333;50.762;4.470;2023-11-21T10:36:49;26.30;;;16.00;;
38972;SDS011;25333;50.762;4.470;2023-11-21T10:39:18;28.35;;;16.48;;
38972;SDS011;25333;50.762;4.470;2023-11-21T10:41:45;30.35;;;16.42;;
38972;SDS011;25333;50.762;4.470;2023-11-21T10:44:14;32.20;;;20.27;;
38972;SDS011;25333;50.762;4.470;2023-11-21T10:46:45;32.40;;;20.90;;
38972;SDS011;25333;50.762;4.470;2023-11-21T10:49:19;37.60;;;24.10;;
38972;SDS011;25333;50.762;4.470;2023-11-21T10:51:45;41.05;;;23.83;;
38972;SDS011;25333;50.762;4.470;2023-11-21T10:54:16;38.95;;;22.33;;
38972;SDS011;25333;50.762;4.470;2023-11-21T10:56:42;33.03;;;20.77;;
38972;SDS011;25333;50.762;4.470;2023-11-21T10:59:10;36.08;;;21.88;;
38972;SDS011;25333;50.762;4.470;2023-11-21T11:01:42;29.77;;;18.08;;
38972;SDS011;25333;50.762;4.470;2023-11-21T11:04:14;30.75;;;18.98;;
38972;SDS011;25333;50.762;4.470;2023-11-21T11:06:45;21.65;;;14.10;;
38972;SDS011;25333;50.762;4.470;2023-11-21T11:09:18;22.08;;;13.40;;
38972;SDS011;25333;50.762;4.470;2023-11-21T11:11:43;20.17;;;14.05;;
38972;SDS011;25333;50.762;4.470;2023-11-21T11:14:10;20.08;;;12.95;;
38972;SDS011;25333;50.762;4.470;2023-11-21T11:16:38;20.65;;;12.85;;
38972;SDS011;25333;50.762;4.470;2023-11-21T11:19:06;15.68;;;10.82;;
38972;SDS011;25333;50.762;4.470;2023-11-21T11:27:48;16.90;;;10.90;;
38972;SDS011;25333;50.762;4.470;2023-11-21T11:30:41;17.45;;;11.23;;
38972;SDS011;25333;50.762;4.470;2023-11-21T11:33:31;15.38;;;11.20;;
38972;SDS011;25333;50.762;4.470;2023-11-21T11:36:18;18.70;;;12.10;;
38972;SDS011;25333;50.762;4.470;2023-11-21T11:38:51;18.95;;;11.88;;
38972;SDS011;25333;50.762;4.470;2023-11-21T11:41:24;19.45;;;12.77;;
38972;SDS011;25333;50.762;4.470;2023-11-21T11:43:55;19.27;;;12.45;;
38972;SDS011;25333;50.762;4.470;2023-11-21T11:46:39;18.60;;;12.43;;
38972;SDS011;25333;50.762;4.470;2023-11-21T11:49:06;17.27;;;11.75;;
38972;SDS011;25333;50.762;4.470;2023-11-21T11:51:33;20.00;;;12.07;;
38972;SDS011;25333;50.762;4.470;2023-11-21T11:54:00;22.05;;;13.70;;
38972;SDS011;25333;50.762;4.470;2023-11-21T11:56:30;19.00;;;12.63;;
38972;SDS011;25333;50.762;4.470;2023-11-21T11:59:00;22.83;;;12.68;;
38972;SDS011;25333;50.762;4.470;2023-11-21T12:01:28;24.52;;;14.77;;
38972;SDS011;25333;50.762;4.470;2023-11-21T12:07:02;21.10;;;13.23;;
38972;SDS011;25333;50.762;4.470;2023-11-21T12:09:28;21.60;;;14.88;;
38972;SDS011;25333;50.762;4.470;2023-11-21T12:11:55;22.27;;;13.23;;
38972;SDS011;25333;50.762;4.470;2023-11-21T12:14:24;23.08;;;14.60;;
38972;SDS011;25333;50.762;4.470;2023-11-21T12:16:50;23.67;;;15.93;;
38972;SDS011;25333;50.762;4.470;2023-11-21T12:19:16;19.70;;;13.07;;
38972;SDS011;25333;50.762;4.470;2023-11-21T12:21:42;23.33;;;15.30;;
38972;SDS011;25333;50.762;4.470;2023-11-21T12:24:09;25.90;;;16.03;;
38972;SDS011;25333;50.762;4.470;2023-11-21T12:26:38;21.65;;;14.32;;
38972;SDS011;25333;50.762;4.470;2023-11-21T12:29:04;21.53;;;15.10;;
38972;SDS011;25333;50.762;4.470;2023-11-21T12:31:32;18.35;;;12.68;;
38972;SDS011;25333;50.762;4.470;2023-11-21T12:33:58;17.07;;;11.20;;
38972;SDS011;25333;50.762;4.470;2023-11-21T12:36:24;14.88;;;10.38;;
38972;SDS011;25333;50.762;4.470;2023-11-21T12:38:50;16.00;;;10.52;;
38972;SDS011;25333;50.762;4.470;2023-11-21T12:41:16;20.40;;;13.05;;
38972;SDS011;25333;50.762;4.470;2023-11-21T12:43:46;19.17;;;12.30;;
38972;SDS011;25333;50.762;4.470;2023-11-21T12:46:12;18.35;;;12.05;;
38972;SDS011;25333;50.762;4.470;2023-11-21T12:48:43;17.17;;;11.43;;
38972;SDS011;25333;50.762;4.470;2023-11-21T12:51:11;17.10;;;10.65;;
38972;SDS011;25333;50.762;4.470;2023-11-21T12:53:37;17.77;;;10.75;;
38972;SDS011;25333;50.762;4.470;2023-11-21T12:56:12;16.10;;;10.48;;
38972;SDS011;25333;50.762;4.470;2023-11-21T12:58:39;13.73;;;9.75;;
38972;SDS011;25333;50.762;4.470;2023-11-21T13:01:06;14.15;;;10.13;;
38972;SDS011;25333;50.762;4.470;2023-11-21T13:03:37;14.37;;;9.87;;
38972;SDS011;25333;50.762;4.470;2023-11-21T13:06:04;10.82;;;8.68;;
38972;SDS011;25333;50.762;4.470;2023-11-21T13:08:30;13.63;;;8.90;;
38972;SDS011;25333;50.762;4.470;2023-11-21T13:10:58;11.32;;;8.30;;
38972;SDS011;25333;50.762;4.470;2023-11-21T13:13:24;11.98;;;8.93;;
38972;SDS011;25333;50.762;4.470;2023-11-21T13:18:25;12.13;;;8.43;;
38972;SDS011;25333;50.762;4.470;2023-11-21T13:20:52;10.57;;;7.87;;
38972;SDS011;25333;50.762;4.470;2023-11-21T13:23:18;14.60;;;9.18;;
38972;SDS011;25333;50.762;4.470;2023-11-21T13:25:44;11.20;;;7.90;;
38972;SDS011;25333;50.762;4.470;2023-11-21T13:28:13;12.30;;;8.32;;
38972;SDS011;25333;50.762;4.470;2023-11-21T13:30:45;11.25;;;7.97;;
38972;SDS011;25333;50.762;4.470;2023-11-21T13:33:11;9.32;;;7.80;;
38972;SDS011;25333;50.762;4.470;2023-11-21T13:35:42;8.10;;;6.25;;
38972;SDS011;25333;50.762;4.470;2023-11-21T13:38:14;8.73;;;6.40;;
38972;SDS011;25333;50.762;4.470;2023-11-21T13:40:48;8.60;;;6.40;;
38972;SDS011;25333;50.762;4.470;2023-11-21T13:43:18;9.25;;;6.57;;
38972;SDS011;25333;50.762;4.470;2023-11-21T13:45:46;8.75;;;6.35;;
38972;SDS011;25333;50.762;4.470;2023-11-21T13:48:12;11.47;;;7.03;;
38972;SDS011;25333;50.762;4.470;2023-11-21T13:50:39;7.47;;;5.55;;
38972;SDS011;25333;50.762;4.470;2023-11-21T13:53:13;8.80;;;5.78;;
38972;SDS011;25333;50.762;4.470;2023-11-21T13:55:48;8.55;;;5.32;;
38972;SDS011;25333;50.762;4.470;2023-11-21T13:58:20;6.60;;;4.22;;
38972;SDS011;25333;50.762;4.470;2023-11-21T14:01:04;5.25;;;3.03;;
38972;SDS011;25333;50.762;4.470;2023-11-21T14:03:38;3.65;;;2.25;;
38972;SDS011;25333;50.762;4.470;2023-11-21T14:06:15;4.43;;;2.42;;
38972;SDS011;25333;50.762;4.470;2023-11-21T14:08:47;6.72;;;2.75;;
38972;SDS011;25333;50.762;4.470;2023-11-21T14:11:13;4.53;;;2.38;;
38972;SDS011;25333;50.762;4.470;2023-11-21T14:13:42;4.68;;;2.45;;
38972;SDS011;25333;50.762;4.470;2023-11-21T14:16:12;3.92;;;2.92;;
38972;SDS011;25333;50.762;4.470;2023-11-21T14:18:39;4.30;;;2.92;;
38972;SDS011;25333;50.762;4.470;2023-11-21T14:21:17;4.70;;;2.95;;
38972;SDS011;25333;50.762;4.470;2023-11-21T14:23:46;4.20;;;3.08;;
38972;SDS011;25333;50.762;4.470;2023-11-21T14:26:13;5.68;;;3.03;;
38972;SDS011;25333;50.762;4.470;2023-11-21T14:28:40;4.57;;;2.90;;
38972;SDS011;25333;50.762;4.470;2023-11-21T14:31:06;3.03;;;2.30;;
38972;SDS011;25333;50.762;4.470;2023-11-21T14:33:32;4.75;;;2.30;;
38972;SDS011;25333;50.762;4.470;2023-11-21T14:35:58;5.93;;;3.65;;
38972;SDS011;25333;50.762;4.470;2023-11-21T14:38:24;6.57;;;3.83;;